Time;durP1;ratioP1;P1;durP2;ratioP2;P2;SDS_P1;SDS_P2;PMS_P1;PMS_P2;Temp;Humidity;BMP_temperature;BMP_pressure;BME280_temperature;BME280_humidity;BME280_pressure;Samples;Min_cycle;Max_cycle;Signal;HPM_P1;HPM_P2
2024/01/18 00:00:11;;;;;;;;;;;1.40;91.80;;;;;;4961699;28;20021;-72
2024/01/18 00:02:45;;;;;;;;;;;1.40;91.90;;;;;;4963863;28;19999;-72
2024/01/18 00:05:11;;;;;;;;;;;1.40;91.90;;;;;;4961942;28;19927;-72
2024/01/18 00:07:45;;;;;;;;;;;1.40;91.80;;;;;;4965131;28;19976;-73
2024/01/18 00:10:26;;;;;;;;;;;1.40;91.80;;;;;;4964005;28;19977;-72
2024/01/18 00:13:01;;;;;;;;;;;1.40;91.70;;;;;;4963250;28;20687;-72
2024/01/18 00:15:35;;;;;;;;;;;1.40;91.70;;;;;;4961378;28;20455;-72
2024/01/18 00:18:10;;;;;;;;;;;1.40;91.80;;;;;;4961317;28;19930;-72
2024/01/18 00:20:37;;;;;;;;;;;1.40;91.80;;;;;;4963282;28;19930;-72
2024/01/18 00:23:10;;;;;;;;;;;1.40;91.70;;;;;;4964544;28;19930;-72
2024/01/18 00:25:36;;;;;;;;;;;1.50;91.80;;;;;;4963378;28;19930;-71
2024/01/18 00:28:11;;;;;;;;;;;1.50;91.70;;;;;;4960849;28;19934;-71
2024/01/18 00:30:45;;;;;;;;;;;1.50;91.70;;;;;;4964039;28;19926;-72
2024/01/18 00:33:18;;;;;;;;;;;1.50;91.70;;;;;;4960247;28;19934;-73
2024/01/18 00:35:51;;;;;;;;;;;1.40;91.60;;;;;;4962864;28;19942;-72
2024/01/18 00:38:24;;;;;;;;;;;1.50;91.70;;;;;;4959470;28;19956;-73
2024/01/18 00:40:57;;;;;;;;;;;1.50;91.60;;;;;;4959699;28;19934;-72
2024/01/18 00:43:31;;;;;;;;;;;1.40;91.60;;;;;;4964162;28;22654;-73
2024/01/18 00:46:05;;;;;;;;;;;1.50;91.70;;;;;;4964548;28;19934;-72
2024/01/18 00:48:38;;;;;;;;;;;1.50;91.70;;;;;;4966614;28;20380;-73
2024/01/18 00:51:04;;;;;;;;;;;1.40;91.60;;;;;;4965773;28;19953;-72
2024/01/18 00:53:38;;;;;;;;;;;1.40;91.70;;;;;;5033926;28;20016;-72
2024/01/18 00:56:12;;;;;;;;;;;1.50;91.60;;;;;;4965847;28;19962;-72
2024/01/18 00:58:47;;;;;;;;;;;1.50;91.60;;;;;;4968296;28;19926;-73
2024/01/18 01:01:20;;;;;;;;;;;1.50;91.50;;;;;;4966147;28;19934;-71
2024/01/18 01:03:53;;;;;;;;;;;1.50;91.50;;;;;;4968028;28;19926;-72
2024/01/18 01:06:27;;;;;;;;;;;1.50;91.40;;;;;;4966942;28;19930;-73
2024/01/18 01:08:53;;;;;;;;;;;1.50;91.40;;;;;;4967266;28;19926;-72
2024/01/18 01:11:27;;;;;;;;;;;1.50;91.30;;;;;;4966208;28;20305;-72
2024/01/18 01:14:01;;;;;;;;;;;1.50;91.30;;;;;;4965992;28;19927;-71
2024/01/18 01:16:35;;;;;;;;;;;1.50;91.40;;;;;;4964825;28;19933;-72
2024/01/18 01:19:08;;;;;;;;;;;1.40;91.40;;;;;;4966571;28;20025;-72
2024/01/18 01:21:41;;;;;;;;;;;1.40;91.30;;;;;;4969197;28;19926;-73
2024/01/18 01:24:14;;;;;;;;;;;1.50;91.20;;;;;;4965433;28;19930;-72
2024/01/18 01:26:47;;;;;;;;;;;1.50;91.20;;;;;;4965176;28;19932;-61
2024/01/18 01:29:21;;;;;;;;;;;1.40;91.10;;;;;;4967191;28;19965;-61
2024/01/18 01:31:55;;;;;;;;;;;1.40;91.10;;;;;;4967207;28;19930;-61
2024/01/18 01:34:28;;;;;;;;;;;1.40;91.00;;;;;;4965934;28;20029;-61
2024/01/18 01:37:01;;;;;;;;;;;1.40;91.10;;;;;;4966146;28;19930;-62
2024/01/18 01:39:34;;;;;;;;;;;1.40;91.10;;;;;;4962964;28;19935;-62
2024/01/18 01:42:02;;;;;;;;;;;1.50;91.10;;;;;;4966786;28;20483;-63
2024/01/18 01:44:37;;;;;;;;;;;1.40;91.10;;;;;;4964583;28;20037;-61
2024/01/18 01:47:11;;;;;;;;;;;1.40;91.00;;;;;;4969769;28;19931;-61
2024/01/18 01:49:44;;;;;;;;;;;1.40;91.00;;;;;;4967314;28;20385;-61
2024/01/18 01:52:17;;;;;;;;;;;1.50;91.00;;;;;;4964023;28;19998;-60
2024/01/18 01:54:51;;;;;;;;;;;1.50;91.00;;;;;;4966042;28;19930;-64
2024/01/18 01:57:18;;;;;;;;;;;1.40;90.90;;;;;;4964405;28;19926;-61
2024/01/18 01:59:52;;;;;;;;;;;1.40;90.90;;;;;;4963308;28;20025;-61
2024/01/18 02:02:26;;;;;;;;;;;1.40;90.90;;;;;;5031953;28;19934;-61
2024/01/18 02:04:59;;;;;;;;;;;1.40;91.00;;;;;;4964568;28;20292;-61
2024/01/18 02:07:27;;;;;;;;;;;1.40;90.90;;;;;;4963342;28;19934;-62
2024/01/18 02:10:00;;;;;;;;;;;1.40;90.80;;;;;;4963036;28;19930;-61
2024/01/18 02:12:34;;;;;;;;;;;1.40;90.90;;;;;;4966524;28;19930;-62
2024/01/18 02:15:09;;;;;;;;;;;1.40;90.80;;;;;;4964171;28;19983;-61
2024/01/18 02:17:44;;;;;;;;;;;1.40;90.80;;;;;;4963872;28;20780;-62
2024/01/18 02:20:17;;;;;;;;;;;1.40;90.80;;;;;;5030302;28;20392;-62
2024/01/18 02:22:50;;;;;;;;;;;1.40;90.80;;;;;;4967691;28;20067;-60
2024/01/18 02:25:27;;;;;;;;;;;1.40;90.80;;;;;;4963517;28;19992;-62
2024/01/18 02:28:01;;;;;;;;;;;1.40;90.80;;;;;;4963779;28;19943;-62
2024/01/18 02:30:34;;;;;;;;;;;1.40;90.80;;;;;;4964611;28;19972;-60
2024/01/18 02:33:07;;;;;;;;;;;1.40;90.70;;;;;;4966514;28;19930;-60
2024/01/18 02:35:40;;;;;;;;;;;1.40;90.80;;;;;;4970228;28;19965;-60
2024/01/18 02:38:13;;;;;;;;;;;1.40;90.70;;;;;;4966684;28;19930;-60
2024/01/18 02:40:47;;;;;;;;;;;1.40;90.80;;;;;;4963748;28;20360;-62
2024/01/18 02:43:21;;;;;;;;;;;1.30;90.70;;;;;;4967875;28;19940;-61
2024/01/18 02:45:54;;;;;;;;;;;1.30;90.70;;;;;;4965885;28;19933;-61
2024/01/18 02:48:27;;;;;;;;;;;1.30;90.80;;;;;;4967109;28;20064;-61
2024/01/18 02:51:00;;;;;;;;;;;1.30;90.80;;;;;;4966059;28;19938;-62
2024/01/18 02:53:26;;;;;;;;;;;1.30;90.80;;;;;;4965901;28;19926;-62
2024/01/18 02:56:01;;;;;;;;;;;1.30;90.80;;;;;;4963612;28;20011;-60
2024/01/18 02:58:35;;;;;;;;;;;1.30;90.80;;;;;;4967818;28;19930;-61
2024/01/18 03:01:00;;;;;;;;;;;1.30;90.70;;;;;;4966445;28;19931;-62
2024/01/18 03:03:35;;;;;;;;;;;1.30;90.70;;;;;;4967048;28;19956;-61
2024/01/18 03:06:08;;;;;;;;;;;1.30;90.70;;;;;;4965856;28;19953;-61
2024/01/18 03:08:41;;;;;;;;;;;1.30;90.80;;;;;;4967694;28;19930;-61
2024/01/18 03:11:15;;;;;;;;;;;1.30;90.70;;;;;;4967274;28;19937;-60
2024/01/18 03:13:49;;;;;;;;;;;1.30;90.80;;;;;;4966123;28;20316;-61
2024/01/18 03:16:22;;;;;;;;;;;1.30;90.80;;;;;;4967211;28;19926;-61
2024/01/18 03:18:55;;;;;;;;;;;1.30;90.80;;;;;;4965871;28;19934;-61
2024/01/18 03:21:28;;;;;;;;;;;1.30;90.80;;;;;;4962015;28;19938;-61
2024/01/18 03:24:01;;;;;;;;;;;1.30;90.60;;;;;;4964732;28;19941;-63
2024/01/18 03:26:35;;;;;;;;;;;1.30;90.50;;;;;;4967207;28;19937;-61
2024/01/18 03:29:09;;;;;;;;;;;1.30;90.50;;;;;;4965572;28;19938;-61
2024/01/18 03:31:42;;;;;;;;;;;1.30;90.30;;;;;;4965982;28;19926;-62
2024/01/18 03:34:15;;;;;;;;;;;1.30;90.20;;;;;;4965389;28;19933;-61
2024/01/18 03:36:48;;;;;;;;;;;1.30;90.30;;;;;;4966802;28;19926;-62
2024/01/18 03:39:21;;;;;;;;;;;1.30;90.30;;;;;;4964733;28;23532;-61
2024/01/18 03:41:55;;;;;;;;;;;1.30;90.10;;;;;;4965624;28;19938;-62
2024/01/18 03:44:29;;;;;;;;;;;1.30;90.10;;;;;;4964363;28;20372;-60
2024/01/18 03:47:02;;;;;;;;;;;1.30;89.90;;;;;;4964116;28;20304;-63
2024/01/18 03:49:35;;;;;;;;;;;1.30;90.00;;;;;;4963776;28;19984;-62
2024/01/18 03:52:08;;;;;;;;;;;1.30;90.00;;;;;;4963664;28;19934;-61
2024/01/18 03:54:41;;;;;;;;;;;1.30;90.00;;;;;;4964386;28;19937;-61
2024/01/18 03:57:15;;;;;;;;;;;1.30;89.90;;;;;;4966317;28;19930;-62
2024/01/18 03:59:49;;;;;;;;;;;1.30;90.00;;;;;;5024309;28;20340;-62
2024/01/18 04:02:22;;;;;;;;;;;1.30;90.00;;;;;;5048499;28;19926;-62
2024/01/18 04:04:55;;;;;;;;;;;1.30;90.00;;;;;;4967002;28;19997;-60
2024/01/18 04:07:28;;;;;;;;;;;1.30;90.00;;;;;;4964679;28;19930;-61
2024/01/18 04:10:01;;;;;;;;;;;1.30;90.00;;;;;;4964522;28;20021;-62
2024/01/18 04:12:35;;;;;;;;;;;1.30;90.00;;;;;;4966261;28;19934;-60
2024/01/18 04:15:09;;;;;;;;;;;1.30;90.00;;;;;;4964752;28;19930;-62
2024/01/18 04:17:43;;;;;;;;;;;1.30;90.00;;;;;;4962286;28;19936;-61
2024/01/18 04:20:12;;;;;;;;;;;1.30;90.00;;;;;;4967983;28;19938;-61
2024/01/18 04:22:45;;;;;;;;;;;1.30;89.90;;;;;;4969194;28;19941;-61
2024/01/18 04:25:18;;;;;;;;;;;1.30;90.00;;;;;;4969217;28;19931;-60
2024/01/18 04:27:52;;;;;;;;;;;1.30;89.90;;;;;;4968776;28;19934;-61
2024/01/18 04:30:26;;;;;;;;;;;1.30;89.80;;;;;;4968002;28;19930;-60
2024/01/18 04:32:59;;;;;;;;;;;1.30;89.90;;;;;;4969183;28;19937;-61
2024/01/18 04:35:32;;;;;;;;;;;1.30;89.90;;;;;;4969208;28;19930;-61
2024/01/18 04:38:06;;;;;;;;;;;1.40;89.90;;;;;;4965934;28;19971;-62
2024/01/18 04:40:40;;;;;;;;;;;1.40;89.90;;;;;;4968304;28;19931;-61
2024/01/18 04:43:08;;;;;;;;;;;1.40;89.80;;;;;;4968762;28;20293;-62
2024/01/18 04:45:41;;;;;;;;;;;1.40;89.80;;;;;;4967698;28;19930;-61
2024/01/18 04:48:14;;;;;;;;;;;1.40;89.80;;;;;;4967523;28;20352;-61
2024/01/18 04:50:40;;;;;;;;;;;1.40;89.90;;;;;;4969117;28;19926;-61
2024/01/18 04:53:16;;;;;;;;;;;1.40;89.80;;;;;;4967442;28;19937;-63
2024/01/18 04:55:49;;;;;;;;;;;1.40;89.80;;;;;;4962753;28;20017;-62
2024/01/18 04:58:23;;;;;;;;;;;1.40;89.80;;;;;;4966190;28;20041;-62
2024/01/18 05:00:57;;;;;;;;;;;1.30;89.70;;;;;;4966177;28;20023;-61
2024/01/18 05:03:31;;;;;;;;;;;1.30;89.70;;;;;;4967525;28;20025;-62
2024/01/18 05:06:04;;;;;;;;;;;1.30;89.70;;;;;;4967175;28;20007;-60
2024/01/18 05:08:37;;;;;;;;;;;1.30;89.70;;;;;;4967285;28;19926;-62
2024/01/18 05:11:10;;;;;;;;;;;1.30;89.70;;;;;;4967917;28;19931;-62
2024/01/18 05:13:44;;;;;;;;;;;1.30;89.50;;;;;;4967905;28;20021;-62
2024/01/18 05:16:19;;;;;;;;;;;1.30;89.60;;;;;;4966104;28;19934;-61
2024/01/18 05:18:52;;;;;;;;;;;1.20;89.50;;;;;;4967034;28;19937;-61
2024/01/18 05:21:25;;;;;;;;;;;1.20;89.60;;;;;;4962913;28;19931;-59
2024/01/18 05:23:58;;;;;;;;;;;1.30;89.60;;;;;;4965466;28;20021;-61
2024/01/18 05:26:31;;;;;;;;;;;1.20;89.60;;;;;;4967183;28;19927;-61
2024/01/18 05:29:11;;;;;;;;;;;1.30;89.50;;;;;;5035780;28;20261;-61
2024/01/18 05:31:45;;;;;;;;;;;1.30;89.60;;;;;;4970476;28;19934;-62
2024/01/18 05:34:18;;;;;;;;;;;1.30;89.50;;;;;;4969711;28;19930;-61
2024/01/18 05:36:51;;;;;;;;;;;1.30;89.40;;;;;;4970710;28;19930;-62
2024/01/18 05:39:25;;;;;;;;;;;1.30;89.50;;;;;;4969202;28;19930;-61
2024/01/18 05:41:59;;;;;;;;;;;1.30;89.40;;;;;;4969758;28;20034;-59
2024/01/18 05:44:33;;;;;;;;;;;1.30;89.40;;;;;;4969966;28;19933;-61
2024/01/18 05:47:08;;;;;;;;;;;1.30;89.50;;;;;;4964815;28;20001;-61
2024/01/18 05:49:41;;;;;;;;;;;1.30;89.60;;;;;;4970223;28;19927;-61
2024/01/18 05:52:14;;;;;;;;;;;1.30;89.60;;;;;;4968446;28;19941;-59
2024/01/18 05:54:47;;;;;;;;;;;1.30;89.70;;;;;;4965255;28;19926;-61
2024/01/18 05:57:13;;;;;;;;;;;1.20;89.80;;;;;;4966614;28;19930;-60
2024/01/18 05:59:48;;;;;;;;;;;1.20;89.80;;;;;;4968373;28;19954;-61
2024/01/18 06:02:15;;;;;;;;;;;1.20;89.90;;;;;;4969609;28;19930;-61
2024/01/18 06:04:48;;;;;;;;;;;1.20;89.90;;;;;;4970348;28;19930;-61
2024/01/18 06:07:15;;;;;;;;;;;1.10;90.00;;;;;;4967877;28;19938;-62
2024/01/18 06:09:48;;;;;;;;;;;1.10;90.00;;;;;;4968050;28;19937;-61
2024/01/18 06:12:14;;;;;;;;;;;1.10;90.10;;;;;;4968659;28;20285;-62
2024/01/18 06:14:49;;;;;;;;;;;1.10;90.20;;;;;;4966542;28;19934;-61
2024/01/18 06:17:23;;;;;;;;;;;1.10;90.10;;;;;;4961541;28;19926;-62
2024/01/18 06:19:56;;;;;;;;;;;1.10;90.10;;;;;;4969455;28;19979;-63
2024/01/18 06:22:30;;;;;;;;;;;1.10;90.20;;;;;;4968623;28;19937;-62
2024/01/18 06:25:03;;;;;;;;;;;1.10;90.00;;;;;;4966220;28;19934;-62
2024/01/18 06:27:37;;;;;;;;;;;1.10;90.00;;;;;;4967015;28;19926;-62
2024/01/18 06:30:12;;;;;;;;;;;1.10;90.10;;;;;;4964885;28;19933;-61
2024/01/18 06:32:46;;;;;;;;;;;1.10;90.20;;;;;;4967118;28;19926;-62
2024/01/18 06:35:19;;;;;;;;;;;1.10;90.10;;;;;;4963070;28;20003;-62
2024/01/18 06:37:45;;;;;;;;;;;1.10;90.10;;;;;;4973489;28;19926;-62
2024/01/18 06:40:19;;;;;;;;;;;1.10;90.20;;;;;;4967246;28;19934;-61
2024/01/18 06:42:52;;;;;;;;;;;1.10;90.20;;;;;;4968308;28;19933;-61
2024/01/18 06:45:26;;;;;;;;;;;1.10;90.20;;;;;;4965605;28;19988;-62
2024/01/18 06:48:00;;;;;;;;;;;1.10;90.20;;;;;;4968042;28;19941;-61
2024/01/18 06:50:33;;;;;;;;;;;1.00;90.20;;;;;;4966719;28;19938;-61
2024/01/18 06:53:06;;;;;;;;;;;1.10;90.20;;;;;;4967255;28;20317;-62
2024/01/18 06:55:40;;;;;;;;;;;1.00;90.20;;;;;;4968754;28;19930;-61
2024/01/18 06:58:13;;;;;;;;;;;1.10;90.30;;;;;;4963689;28;19933;-62
2024/01/18 07:00:48;;;;;;;;;;;1.00;90.20;;;;;;4966552;28;19926;-61
2024/01/18 07:03:22;;;;;;;;;;;1.00;90.20;;;;;;4967149;28;19978;-62
2024/01/18 07:05:55;;;;;;;;;;;1.00;90.20;;;;;;4966927;28;19926;-62
2024/01/18 07:08:29;;;;;;;;;;;1.00;90.20;;;;;;4968222;28;19972;-60
2024/01/18 07:10:55;;;;;;;;;;;1.00;89.90;;;;;;4967147;28;19930;-62
2024/01/18 07:13:29;;;;;;;;;;;1.00;90.00;;;;;;4967787;28;19926;-61
2024/01/18 07:16:03;;;;;;;;;;;1.00;89.90;;;;;;4966358;28;19953;-63
2024/01/18 07:18:37;;;;;;;;;;;0.90;89.80;;;;;;4966830;28;19926;-62
2024/01/18 07:21:10;;;;;;;;;;;0.80;89.40;;;;;;4967389;28;19949;-61
2024/01/18 07:23:43;;;;;;;;;;;0.90;89.40;;;;;;4967713;28;20024;-61
2024/01/18 07:26:16;;;;;;;;;;;0.90;89.40;;;;;;4968786;28;20009;-61
2024/01/18 07:28:49;;;;;;;;;;;0.90;89.50;;;;;;4967363;28;19933;-62
2024/01/18 07:31:23;;;;;;;;;;;0.90;89.40;;;;;;4967841;28;19973;-61
2024/01/18 07:33:57;;;;;;;;;;;0.90;89.20;;;;;;4965809;28;19938;-62
2024/01/18 07:36:30;;;;;;;;;;;0.80;89.10;;;;;;4967863;28;19930;-61
2024/01/18 07:39:03;;;;;;;;;;;0.80;89.10;;;;;;4967337;28;19983;-61
2024/01/18 07:41:36;;;;;;;;;;;0.70;88.90;;;;;;4967655;28;19930;-62
2024/01/18 07:44:09;;;;;;;;;;;0.70;89.10;;;;;;5031870;28;19936;-60
2024/01/18 07:46:44;;;;;;;;;;;0.70;88.80;;;;;;4967098;28;19926;-61
2024/01/18 07:49:18;;;;;;;;;;;0.70;88.60;;;;;;4967715;28;19930;-61
2024/01/18 07:51:51;;;;;;;;;;;0.70;88.80;;;;;;4966542;28;19934;-61
2024/01/18 07:54:24;;;;;;;;;;;0.70;88.70;;;;;;4966987;28;20007;-62
2024/01/18 07:56:57;;;;;;;;;;;0.70;88.70;;;;;;4967083;28;19930;-60
2024/01/18 07:59:30;;;;;;;;;;;0.70;88.60;;;;;;4963248;28;19995;-62
2024/01/18 08:02:04;;;;;;;;;;;0.70;88.60;;;;;;4967227;28;20729;-62
2024/01/18 08:04:38;;;;;;;;;;;0.70;88.60;;;;;;4967910;28;20296;-62
2024/01/18 08:07:11;;;;;;;;;;;0.70;88.50;;;;;;4967443;28;20024;-61
2024/01/18 08:09:44;;;;;;;;;;;0.70;88.50;;;;;;4967074;28;20020;-61
2024/01/18 08:12:17;;;;;;;;;;;0.70;88.30;;;;;;4965986;28;19926;-62
2024/01/18 08:14:50;;;;;;;;;;;0.70;88.50;;;;;;4965867;28;19988;-62
2024/01/18 08:17:24;;;;;;;;;;;0.70;88.30;;;;;;4965591;28;19926;-62
2024/01/18 08:19:58;;;;;;;;;;;0.70;88.20;;;;;;4967749;28;19934;-62
2024/01/18 08:22:24;;;;;;;;;;;0.80;88.20;;;;;;4967570;28;19934;-61
2024/01/18 08:24:58;;;;;;;;;;;0.80;87.90;;;;;;4967375;28;20339;-62
2024/01/18 08:27:31;;;;;;;;;;;0.70;88.00;;;;;;4965871;28;19941;-61
2024/01/18 08:30:05;;;;;;;;;;;0.80;88.10;;;;;;4965134;28;19930;-62
2024/01/18 08:32:39;;;;;;;;;;;0.80;87.70;;;;;;4966982;28;20444;-61
2024/01/18 08:35:13;;;;;;;;;;;0.70;87.80;;;;;;4965023;28;20377;-62
2024/01/18 08:37:47;;;;;;;;;;;0.70;88.00;;;;;;5033886;28;19931;-62
2024/01/18 08:40:27;;;;;;;;;;;0.80;87.90;;;;;;4964565;28;19934;-62
2024/01/18 08:43:02;;;;;;;;;;;0.70;87.80;;;;;;4966443;28;20361;-63
2024/01/18 08:45:36;;;;;;;;;;;0.70;87.70;;;;;;4966006;28;19932;-62
2024/01/18 08:48:11;;;;;;;;;;;0.70;87.70;;;;;;4966278;28;19930;-60
2024/01/18 08:50:45;;;;;;;;;;;0.80;87.80;;;;;;4967202;28;20019;-62
2024/01/18 08:53:18;;;;;;;;;;;0.80;87.80;;;;;;4966147;28;19926;-61
2024/01/18 08:55:51;;;;;;;;;;;0.80;87.80;;;;;;4967008;28;19930;-62
2024/01/18 08:58:24;;;;;;;;;;;0.80;87.70;;;;;;4965053;28;20261;-61
2024/01/18 09:00:57;;;;;;;;;;;0.80;87.80;;;;;;4965895;28;19926;-61
2024/01/18 09:03:31;;;;;;;;;;;0.80;87.60;;;;;;4967491;28;20395;-61
2024/01/18 09:06:05;;;;;;;;;;;0.80;87.50;;;;;;4969003;28;19984;-62
2024/01/18 09:12:00;;;;;;;;;;;0.90;87.50;;;;;;5298151;22;20025;-63
2024/01/18 09:14:34;;;;;;;;;;;0.80;87.30;;;;;;4964466;28;19962;-63
2024/01/18 09:17:07;;;;;;;;;;;0.80;87.20;;;;;;4965550;28;19930;-65
2024/01/18 09:19:43;;;;;;;;;;;0.90;87.50;;;;;;4962614;28;19930;-65
2024/01/18 09:22:16;;;;;;;;;;;0.90;87.40;;;;;;4972283;28;19930;-64
2024/01/18 09:24:50;;;;;;;;;;;0.80;87.30;;;;;;4971770;28;19930;-64
2024/01/18 09:27:23;;;;;;;;;;;0.80;87.40;;;;;;4969536;28;19979;-64
2024/01/18 09:29:57;;;;;;;;;;;0.90;87.40;;;;;;4966542;28;19934;-61
2024/01/18 09:32:31;;;;;;;;;;;0.90;87.30;;;;;;4970017;28;19930;-65
2024/01/18 09:35:06;;;;;;;;;;;0.90;87.20;;;;;;4972995;28;19930;-63
2024/01/18 09:37:39;;;;;;;;;;;0.80;87.20;;;;;;4967983;28;19933;-62
2024/01/18 09:40:12;;;;;;;;;;;0.80;87.30;;;;;;4970752;28;19928;-63
2024/01/18 09:42:46;;;;;;;;;;;0.80;87.40;;;;;;4968408;28;19931;-63
2024/01/18 09:45:22;;;;;;;;;;;0.80;87.40;;;;;;4967877;28;19934;-63
2024/01/18 09:47:56;;;;;;;;;;;0.80;87.50;;;;;;4969348;28;19932;-63
2024/01/18 09:50:32;;;;;;;;;;;0.80;87.60;;;;;;4967636;28;20395;-63
2024/01/18 09:53:06;;;;;;;;;;;0.70;87.30;;;;;;4968361;28;20292;-63
2024/01/18 09:55:39;;;;;;;;;;;0.70;87.40;;;;;;4968183;28;19948;-64
2024/01/18 09:58:13;;;;;;;;;;;0.70;87.40;;;;;;4968817;28;19934;-62
2024/01/18 10:00:49;;;;;;;;;;;0.70;87.60;;;;;;4964738;28;20396;-63
2024/01/18 10:03:23;;;;;;;;;;;0.70;87.60;;;;;;4968299;28;19926;-65
2024/01/18 10:05:57;;;;;;;;;;;0.80;87.70;;;;;;4968388;28;19926;-62
2024/01/18 10:08:31;;;;;;;;;;;0.80;87.50;;;;;;4969761;28;19964;-63
2024/01/18 10:11:10;;;;;;;;;;;0.90;87.70;;;;;;4967036;28;19930;-62
2024/01/18 10:13:54;;;;;;;;;;;0.90;87.70;;;;;;4961781;28;19933;-62
2024/01/18 10:16:28;;;;;;;;;;;0.90;87.60;;;;;;4960165;28;19940;-63
2024/01/18 10:19:02;;;;;;;;;;;0.80;87.40;;;;;;4961507;28;19935;-60
2024/01/18 10:21:36;;;;;;;;;;;0.80;87.70;;;;;;4962264;28;19933;-62
2024/01/18 10:24:11;;;;;;;;;;;0.80;87.80;;;;;;4961830;28;19930;-60
2024/01/18 10:26:45;;;;;;;;;;;0.80;87.70;;;;;;4960061;28;20303;-61
2024/01/18 10:29:19;;;;;;;;;;;0.90;87.90;;;;;;4959550;28;19979;-61
2024/01/18 10:31:53;;;;;;;;;;;0.90;87.80;;;;;;4960133;28;20010;-62
2024/01/18 10:34:26;;;;;;;;;;;0.90;88.00;;;;;;4962213;28;19959;-61
2024/01/18 10:37:01;;;;;;;;;;;0.90;88.00;;;;;;4962773;28;19980;-61
2024/01/18 10:39:39;;;;;;;;;;;0.90;87.90;;;;;;4962159;28;19934;-61
2024/01/18 10:42:14;;;;;;;;;;;1.00;87.90;;;;;;4959843;28;19934;-60
2024/01/18 10:44:48;;;;;;;;;;;0.90;87.80;;;;;;4962535;28;19926;-61
2024/01/18 10:47:23;;;;;;;;;;;0.90;87.80;;;;;;4961230;28;19934;-61
2024/01/18 10:49:57;;;;;;;;;;;0.90;87.80;;;;;;4961539;28;20415;-60
2024/01/18 10:52:31;;;;;;;;;;;0.90;87.80;;;;;;4960131;28;19977;-61
2024/01/18 10:55:08;;;;;;;;;;;1.00;87.80;;;;;;4962388;28;19926;-61
2024/01/18 10:57:41;;;;;;;;;;;1.00;87.70;;;;;;4960224;28;19930;-58
2024/01/18 11:00:16;;;;;;;;;;;1.10;87.70;;;;;;4956672;28;19926;-58
2024/01/18 11:02:50;;;;;;;;;;;1.00;87.70;;;;;;4963995;28;19984;-60
2024/01/18 11:05:23;;;;;;;;;;;1.10;87.60;;;;;;4962563;28;19969;-60
2024/01/18 11:07:59;;;;;;;;;;;1.10;87.70;;;;;;4962452;28;19934;-61
2024/01/18 11:10:32;;;;;;;;;;;1.20;87.60;;;;;;4962047;28;19976;-60
2024/01/18 11:13:05;;;;;;;;;;;1.20;87.60;;;;;;4961697;28;19953;-62
2024/01/18 11:15:41;;;;;;;;;;;1.30;87.50;;;;;;4959261;28;19948;-61
2024/01/18 11:18:14;;;;;;;;;;;1.20;87.30;;;;;;4959163;28;19937;-63
2024/01/18 11:21:01;;;;;;;;;;;1.20;87.60;;;;;;4961508;28;19926;-61
2024/01/18 11:23:36;;;;;;;;;;;1.20;87.30;;;;;;4959132;28;19926;-62
2024/01/18 11:26:18;;;;;;;;;;;1.20;87.30;;;;;;4962184;28;19927;-64
2024/01/18 11:29:11;;;;;;;;;;;1.10;87.20;;;;;;4962289;28;19927;-60
2024/01/18 11:31:49;;;;;;;;;;;1.10;87.10;;;;;;4959855;28;19956;-61
2024/01/18 11:34:31;;;;;;;;;;;1.20;87.20;;;;;;4959122;28;19934;-61
2024/01/18 11:37:11;;;;;;;;;;;1.30;87.00;;;;;;4959079;28;19937;-61
2024/01/18 11:39:54;;;;;;;;;;;1.30;87.00;;;;;;4957080;28;20296;-62
2024/01/18 11:42:29;;;;;;;;;;;1.30;86.90;;;;;;4958572;28;20368;-60
2024/01/18 11:45:04;;;;;;;;;;;1.30;87.00;;;;;;4946333;28;19930;-60
2024/01/18 11:47:38;;;;;;;;;;;1.30;86.90;;;;;;4958569;28;19930;-61
2024/01/18 11:50:11;;;;;;;;;;;1.40;86.80;;;;;;4961025;28;20174;-61
2024/01/18 11:52:45;;;;;;;;;;;1.50;86.80;;;;;;4944699;28;19961;-61
2024/01/18 11:55:19;;;;;;;;;;;1.50;86.70;;;;;;4960978;28;19957;-62
2024/01/18 11:57:53;;;;;;;;;;;1.50;86.70;;;;;;4945297;28;20402;-60
2024/01/18 12:00:26;;;;;;;;;;;1.40;86.90;;;;;;4960658;28;20000;-61
2024/01/18 12:03:03;;;;;;;;;;;1.50;86.80;;;;;;4960577;28;19930;-60
2024/01/18 12:05:36;;;;;;;;;;;1.60;86.90;;;;;;4960409;28;19926;-61
2024/01/18 12:08:10;;;;;;;;;;;1.60;86.80;;;;;;4954378;28;19932;-61
2024/01/18 12:10:45;;;;;;;;;;;1.60;86.60;;;;;;4959907;28;19934;-60
2024/01/18 12:13:19;;;;;;;;;;;1.60;86.80;;;;;;4958906;28;19927;-62
2024/01/18 12:15:52;;;;;;;;;;;1.70;86.80;;;;;;4959278;28;19926;-60
2024/01/18 12:18:26;;;;;;;;;;;1.70;86.60;;;;;;4959128;28;20016;-61
2024/01/18 12:21:03;;;;;;;;;;;1.70;86.50;;;;;;4960081;28;19976;-61
2024/01/18 12:23:37;;;;;;;;;;;1.70;86.30;;;;;;4959961;28;20024;-61
2024/01/18 12:26:12;;;;;;;;;;;1.70;86.10;;;;;;4959565;28;20024;-60
2024/01/18 12:28:46;;;;;;;;;;;1.70;86.20;;;;;;4959926;28;19937;-62
2024/01/18 12:31:20;;;;;;;;;;;1.70;86.30;;;;;;4960505;28;20361;-61
2024/01/18 12:33:54;;;;;;;;;;;1.70;86.20;;;;;;4959227;28;19943;-60
2024/01/18 12:36:27;;;;;;;;;;;1.70;86.20;;;;;;4958964;28;20389;-61
2024/01/18 12:39:00;;;;;;;;;;;1.70;86.20;;;;;;4960691;28;20013;-60
2024/01/18 12:41:34;;;;;;;;;;;1.70;86.30;;;;;;4961571;28;20304;-60
2024/01/18 12:44:08;;;;;;;;;;;1.80;86.30;;;;;;4964458;28;19930;-62
2024/01/18 12:46:42;;;;;;;;;;;1.80;86.20;;;;;;4962944;28;19933;-60
2024/01/18 12:49:11;;;;;;;;;;;1.80;86.30;;;;;;4961609;28;19933;-61
2024/01/18 12:51:50;;;;;;;;;;;1.80;86.20;;;;;;4963932;28;19941;-61
2024/01/18 12:54:24;;;;;;;;;;;1.90;86.30;;;;;;4963049;28;19930;-61
2024/01/18 12:57:00;;;;;;;;;;;1.90;86.30;;;;;;4960129;28;19934;-60
2024/01/18 12:59:33;;;;;;;;;;;1.90;86.00;;;;;;4960841;28;19934;-60
2024/01/18 13:02:07;;;;;;;;;;;1.90;86.20;;;;;;4958589;28;19930;-61
2024/01/18 13:04:40;;;;;;;;;;;1.90;86.20;;;;;;4959855;28;20434;-61
2024/01/18 13:07:13;;;;;;;;;;;1.90;86.40;;;;;;4961539;28;19931;-61
2024/01/18 13:09:47;;;;;;;;;;;1.90;86.20;;;;;;4961884;28;20356;-60
2024/01/18 13:12:21;;;;;;;;;;;1.80;86.10;;;;;;4959774;28;19937;-60
2024/01/18 13:14:56;;;;;;;;;;;1.70;85.90;;;;;;4962162;28;19926;-61
2024/01/18 13:17:30;;;;;;;;;;;1.80;85.80;;;;;;4961826;28;19934;-61
2024/01/18 13:20:03;;;;;;;;;;;1.70;85.50;;;;;;4961173;28;19926;-60
2024/01/18 13:22:37;;;;;;;;;;;1.70;85.50;;;;;;4962231;28;19977;-60
2024/01/18 13:25:10;;;;;;;;;;;1.80;85.90;;;;;;4960126;28;19933;-62
2024/01/18 13:27:44;;;;;;;;;;;1.70;85.80;;;;;;4946136;28;19949;-61
2024/01/18 13:30:18;;;;;;;;;;;1.80;85.60;;;;;;4960523;28;19965;-61
2024/01/18 13:32:51;;;;;;;;;;;1.80;85.50;;;;;;4961638;28;19927;-61
2024/01/18 13:35:24;;;;;;;;;;;1.80;85.70;;;;;;4961098;28;19934;-61
2024/01/18 13:37:57;;;;;;;;;;;1.90;85.70;;;;;;4963603;28;19965;-60
2024/01/18 13:40:30;;;;;;;;;;;1.90;85.50;;;;;;4960301;28;19975;-61
2024/01/18 13:43:05;;;;;;;;;;;1.80;85.30;;;;;;4962706;28;19937;-60
2024/01/18 13:45:38;;;;;;;;;;;1.80;85.30;;;;;;4960519;28;20011;-61
2024/01/18 13:48:11;;;;;;;;;;;1.90;85.20;;;;;;4960947;28;19930;-60
2024/01/18 13:50:44;;;;;;;;;;;1.90;85.20;;;;;;4962543;28;19926;-60
2024/01/18 13:53:18;;;;;;;;;;;1.90;85.20;;;;;;4959773;28;20392;-61
2024/01/18 13:55:51;;;;;;;;;;;1.90;85.20;;;;;;4959020;28;20277;-59
2024/01/18 13:58:25;;;;;;;;;;;1.90;85.30;;;;;;4957108;28;20269;-61
2024/01/18 14:00:59;;;;;;;;;;;2.00;85.40;;;;;;4958713;28;20007;-62
2024/01/18 14:03:33;;;;;;;;;;;2.00;85.00;;;;;;4957037;28;19931;-60
2024/01/18 14:06:00;;;;;;;;;;;2.00;85.00;;;;;;4961154;28;20317;-60
2024/01/18 14:08:34;;;;;;;;;;;2.10;85.10;;;;;;4960654;28;20595;-62
2024/01/18 14:11:07;;;;;;;;;;;2.00;85.10;;;;;;4957382;28;19934;-62
2024/01/18 14:13:41;;;;;;;;;;;2.10;85.20;;;;;;4958852;28;20021;-64
2024/01/18 14:16:21;;;;;;;;;;;2.10;85.20;;;;;;4960689;28;20280;-64
2024/01/18 14:18:55;;;;;;;;;;;2.00;85.30;;;;;;4963064;28;19965;-61
2024/01/18 14:21:28;;;;;;;;;;;2.00;85.30;;;;;;4962271;28;20001;-61
2024/01/18 14:24:01;;;;;;;;;;;2.00;85.30;;;;;;4957510;28;19930;-63
2024/01/18 14:26:28;;;;;;;;;;;2.00;85.10;;;;;;4960841;28;19940;-62
2024/01/18 14:29:08;;;;;;;;;;;1.90;85.00;;;;;;4962188;28;19927;-61
2024/01/18 14:31:42;;;;;;;;;;;1.90;85.00;;;;;;4944256;28;19937;-62
2024/01/18 14:34:15;;;;;;;;;;;1.90;85.00;;;;;;4960729;28;19934;-62
2024/01/18 14:36:42;;;;;;;;;;;1.80;84.80;;;;;;4962852;28;19930;-62
2024/01/18 14:39:16;;;;;;;;;;;1.70;84.50;;;;;;4961745;28;19930;-61
2024/01/18 14:41:49;;;;;;;;;;;1.70;84.40;;;;;;4961155;28;19926;-61
2024/01/18 14:44:23;;;;;;;;;;;1.70;84.30;;;;;;4960551;28;19930;-60
2024/01/18 14:46:57;;;;;;;;;;;1.70;84.40;;;;;;4960345;28;20390;-60
2024/01/18 14:49:30;;;;;;;;;;;1.70;84.50;;;;;;4961027;28;19977;-62
2024/01/18 14:52:04;;;;;;;;;;;1.70;84.50;;;;;;4960083;28;19937;-61
2024/01/18 14:54:39;;;;;;;;;;;1.70;84.60;;;;;;4960600;28;19971;-62
2024/01/18 14:57:12;;;;;;;;;;;1.70;84.30;;;;;;4943658;28;19976;-64
2024/01/18 14:59:47;;;;;;;;;;;1.70;84.40;;;;;;4959548;28;20022;-63
2024/01/18 15:02:14;;;;;;;;;;;1.70;84.40;;;;;;4958170;28;19926;-64
2024/01/18 15:04:47;;;;;;;;;;;1.80;84.60;;;;;;4960010;28;19966;-62
2024/01/18 15:07:20;;;;;;;;;;;1.70;84.50;;;;;;4960363;28;21837;-64
2024/01/18 15:09:47;;;;;;;;;;;1.70;84.50;;;;;;4961075;28;19969;-63